sensor_id;sensor_type;location;lat;lon;timestamp;temperature;humidity
7844;DHT22;3967;48.702;9.326;2023-11-19T00:00:08;8.70;99.90
7844;DHT22;3967;48.702;9.326;2023-11-19T00:02:41;8.80;99.90
7844;DHT22;3967;48.702;9.326;2023-11-19T00:05:09;8.90;99.90
7844;DHT22;3967;48.702;9.326;2023-11-19T00:07:39;8.90;99.90
7844;DHT22;3967;48.702;9.326;2023-11-19T00:10:10;8.90;99.90
7844;DHT22;3967;48.702;9.326;2023-11-19T00:12:39;8.90;99.90
7844;DHT22;3967;48.702;9.326;2023-11-19T00:15:06;8.80;99.90
7844;DHT22;3967;48.702;9.326;2023-11-19T00:17:39;8.80;99.90
7844;DHT22;3967;48.702;9.326;2023-11-19T00:20:13;8.80;99.90
7844;DHT22;3967;48.702;9.326;2023-11-19T00:22:41;8.70;99.90
7844;DHT22;3967;48.702;9.326;2023-11-19T00:25:11;8.60;99.90
7844;DHT22;3967;48.702;9.326;2023-11-19T00:27:38;8.70;99.90
7844;DHT22;3967;48.702;9.326;2023-11-19T00:30:06;8.80;99.90
7844;DHT22;3967;48.702;9.326;2023-11-19T00:32:33;8.70;99.90
7844;DHT22;3967;48.702;9.326;2023-11-19T00:35:00;8.70;99.90
7844;DHT22;3967;48.702;9.326;2023-11-19T00:37:27;8.70;99.90
7844;DHT22;3967;48.702;9.326;2023-11-19T00:39:53;8.80;99.90
7844;DHT22;3967;48.702;9.326;2023-11-19T00:42:22;8.90;99.90
7844;DHT22;3967;48.702;9.326;2023-11-19T00:44:51;8.90;99.90
7844;DHT22;3967;48.702;9.326;2023-11-19T00:47:18;8.90;99.90
7844;DHT22;3967;48.702;9.326;2023-11-19T00:49:47;8.90;99.90
7844;DHT22;3967;48.702;9.326;2023-11-19T00:52:17;8.90;99.90
7844;DHT22;3967;48.702;9.326;2023-11-19T00:54:45;8.90;99.90
7844;DHT22;3967;48.702;9.326;2023-11-19T00:57:12;8.90;99.90
7844;DHT22;3967;48.702;9.326;2023-11-19T00:59:41;8.90;99.90
7844;DHT22;3967;48.702;9.326;2023-11-19T01:02:08;8.90;99.90
7844;DHT22;3967;48.702;9.326;2023-11-19T01:04:36;8.90;99.90
7844;DHT22;3967;48.702;9.326;2023-11-19T01:07:03;9.00;99.90
7844;DHT22;3967;48.702;9.326;2023-11-19T01:09:31;9.00;99.90
7844;DHT22;3967;48.702;9.326;2023-11-19T01:12:02;9.00;99.90
7844;DHT22;3967;48.702;9.326;2023-11-19T01:14:30;9.10;99.90
7844;DHT22;3967;48.702;9.326;2023-11-19T01:16:57;9.10;99.90
7844;DHT22;3967;48.702;9.326;2023-11-19T01:19:24;9.10;99.90
7844;DHT22;3967;48.702;9.326;2023-11-19T01:21:51;9.20;99.90
7844;DHT22;3967;48.702;9.326;2023-11-19T01:24:18;9.20;99.90
7844;DHT22;3967;48.702;9.326;2023-11-19T01:26:45;9.20;99.90
7844;DHT22;3967;48.702;9.326;2023-11-19T01:29:13;9.20;99.90
7844;DHT22;3967;48.702;9.326;2023-11-19T01:31:41;9.30;99.90
7844;DHT22;3967;48.702;9.326;2023-11-19T01:34:08;9.30;99.90
7844;DHT22;3967;48.702;9.326;2023-11-19T01:36:35;9.30;99.90
7844;DHT22;3967;48.702;9.326;2023-11-19T01:39:02;9.20;99.90
7844;DHT22;3967;48.702;9.326;2023-11-19T01:41:36;9.30;99.90
7844;DHT22;3967;48.702;9.326;2023-11-19T01:44:03;9.30;99.90
7844;DHT22;3967;48.702;9.326;2023-11-19T01:46:32;9.30;99.90
7844;DHT22;3967;48.702;9.326;2023-11-19T01:49:00;9.30;99.90
7844;DHT22;3967;48.702;9.326;2023-11-19T01:51:28;9.30;99.90
7844;DHT22;3967;48.702;9.326;2023-11-19T01:53:55;9.30;99.90
7844;DHT22;3967;48.702;9.326;2023-11-19T01:56:24;9.40;99.90
7844;DHT22;3967;48.702;9.326;2023-11-19T01:58:52;9.50;99.90
7844;DHT22;3967;48.702;9.326;2023-11-19T02:01:20;9.50;99.90
7844;DHT22;3967;48.702;9.326;2023-11-19T02:03:48;9.50;99.90
7844;DHT22;3967;48.702;9.326;2023-11-19T02:06:15;9.50;99.90
7844;DHT22;3967;48.702;9.326;2023-11-19T02:08:42;9.60;99.90
7844;DHT22;3967;48.702;9.326;2023-11-19T02:11:10;9.60;99.90
7844;DHT22;3967;48.702;9.326;2023-11-19T02:13:37;9.60;99.90
7844;DHT22;3967;48.702;9.326;2023-11-19T02:16:04;9.70;99.90
7844;DHT22;3967;48.702;9.326;2023-11-19T02:18:32;9.70;99.90
7844;DHT22;3967;48.702;9.326;2023-11-19T02:20:59;9.70;99.90
7844;DHT22;3967;48.702;9.326;2023-11-19T02:23:27;9.70;99.90
7844;DHT22;3967;48.702;9.326;2023-11-19T02:28:28;9.80;99.90
7844;DHT22;3967;48.702;9.326;2023-11-19T02:30:55;9.80;99.90
7844;DHT22;3967;48.702;9.326;2023-11-19T02:33:22;9.80;99.90
7844;DHT22;3967;48.702;9.326;2023-11-19T02:35:49;9.80;99.90
7844;DHT22;3967;48.702;9.326;2023-11-19T02:38:16;9.80;99.90
7844;DHT22;3967;48.702;9.326;2023-11-19T02:40:43;9.80;99.90
7844;DHT22;3967;48.702;9.326;2023-11-19T02:43:10;9.80;99.90
7844;DHT22;3967;48.702;9.326;2023-11-19T02:45:37;9.80;99.90
7844;DHT22;3967;48.702;9.326;2023-11-19T02:48:04;9.80;99.90
7844;DHT22;3967;48.702;9.326;2023-11-19T02:50:32;9.80;99.90
7844;DHT22;3967;48.702;9.326;2023-11-19T02:52:59;9.80;99.90
7844;DHT22;3967;48.702;9.326;2023-11-19T02:55:27;9.90;99.90
7844;DHT22;3967;48.702;9.326;2023-11-19T02:57:57;9.90;99.90
7844;DHT22;3967;48.702;9.326;2023-11-19T03:00:26;9.80;99.90
7844;DHT22;3967;48.702;9.326;2023-11-19T03:03:13;9.80;99.90
7844;DHT22;3967;48.702;9.326;2023-11-19T03:05:49;9.70;99.90
7844;DHT22;3967;48.702;9.326;2023-11-19T03:08:16;9.70;99.90
7844;DHT22;3967;48.702;9.326;2023-11-19T03:10:46;9.80;99.90
7844;DHT22;3967;48.702;9.326;2023-11-19T03:13:14;9.80;99.90
7844;DHT22;3967;48.702;9.326;2023-11-19T03:15:41;9.80;99.90
7844;DHT22;3967;48.702;9.326;2023-11-19T03:18:08;9.80;99.90
7844;DHT22;3967;48.702;9.326;2023-11-19T03:20:35;9.90;99.90
7844;DHT22;3967;48.702;9.326;2023-11-19T03:23:01;9.90;99.90
7844;DHT22;3967;48.702;9.326;2023-11-19T03:25:28;10.00;99.90
7844;DHT22;3967;48.702;9.326;2023-11-19T03:28:00;9.90;99.90
7844;DHT22;3967;48.702;9.326;2023-11-19T03:30:31;9.90;99.90
7844;DHT22;3967;48.702;9.326;2023-11-19T03:33:01;10.00;99.90
7844;DHT22;3967;48.702;9.326;2023-11-19T03:35:29;10.00;99.90
7844;DHT22;3967;48.702;9.326;2023-11-19T03:37:56;10.00;99.90
7844;DHT22;3967;48.702;9.326;2023-11-19T03:40:23;10.00;99.90
7844;DHT22;3967;48.702;9.326;2023-11-19T03:42:51;10.00;99.90
7844;DHT22;3967;48.702;9.326;2023-11-19T03:45:18;10.00;99.90
7844;DHT22;3967;48.702;9.326;2023-11-19T03:47:45;10.00;99.90
7844;DHT22;3967;48.702;9.326;2023-11-19T03:50:11;10.00;99.90
7844;DHT22;3967;48.702;9.326;2023-11-19T03:52:38;10.00;99.90
7844;DHT22;3967;48.702;9.326;2023-11-19T03:55:08;10.10;99.90
7844;DHT22;3967;48.702;9.326;2023-11-19T03:57:35;10.10;99.90
7844;DHT22;3967;48.702;9.326;2023-11-19T04:00:02;10.20;99.90
7844;DHT22;3967;48.702;9.326;2023-11-19T04:02:37;10.20;99.90
7844;DHT22;3967;48.702;9.326;2023-11-19T04:05:04;10.20;99.90
7844;DHT22;3967;48.702;9.326;2023-11-19T04:07:32;10.20;99.90
7844;DHT22;3967;48.702;9.326;2023-11-19T04:09:59;10.20;99.90
7844;DHT22;3967;48.702;9.326;2023-11-19T04:12:26;10.20;99.90
7844;DHT22;3967;48.702;9.326;2023-11-19T04:14:53;10.20;99.90
7844;DHT22;3967;48.702;9.326;2023-11-19T04:17:22;10.20;99.90
7844;DHT22;3967;48.702;9.326;2023-11-19T04:19:49;10.20;99.90
7844;DHT22;3967;48.702;9.326;2023-11-19T04:22:16;10.20;99.90
7844;DHT22;3967;48.702;9.326;2023-11-19T04:24:43;10.20;99.90
7844;DHT22;3967;48.702;9.326;2023-11-19T04:27:12;10.20;99.90
7844;DHT22;3967;48.702;9.326;2023-11-19T04:29:39;10.30;99.90
7844;DHT22;3967;48.702;9.326;2023-11-19T04:32:06;10.30;99.90
7844;DHT22;3967;48.702;9.326;2023-11-19T04:34:32;10.30;99.90
7844;DHT22;3967;48.702;9.326;2023-11-19T04:36:59;10.30;99.90
7844;DHT22;3967;48.702;9.326;2023-11-19T04:39:32;10.30;99.90
7844;DHT22;3967;48.702;9.326;2023-11-19T04:41:59;10.30;99.90
7844;DHT22;3967;48.702;9.326;2023-11-19T04:44:26;10.30;99.90
7844;DHT22;3967;48.702;9.326;2023-11-19T04:46:52;10.30;99.90
7844;DHT22;3967;48.702;9.326;2023-11-19T04:49:19;10.30;99.90
7844;DHT22;3967;48.702;9.326;2023-11-19T04:51:47;10.30;99.90
7844;DHT22;3967;48.702;9.326;2023-11-19T04:54:14;10.40;99.90
7844;DHT22;3967;48.702;9.326;2023-11-19T04:56:45;10.40;99.90
7844;DHT22;3967;48.702;9.326;2023-11-19T04:59:13;10.50;99.90
7844;DHT22;3967;48.702;9.326;2023-11-19T05:01:39;10.50;99.90
7844;DHT22;3967;48.702;9.326;2023-11-19T05:04:07;10.50;99.90
7844;DHT22;3967;48.702;9.326;2023-11-19T05:06:34;10.50;99.90
7844;DHT22;3967;48.702;9.326;2023-11-19T05:09:02;10.60;99.90
7844;DHT22;3967;48.702;9.326;2023-11-19T05:11:34;10.60;99.90
7844;DHT22;3967;48.702;9.326;2023-11-19T05:14:04;10.60;99.90
7844;DHT22;3967;48.702;9.326;2023-11-19T05:16:31;10.70;99.90
7844;DHT22;3967;48.702;9.326;2023-11-19T05:18:59;10.70;99.90
7844;DHT22;3967;48.702;9.326;2023-11-19T05:21:26;10.70;99.90
7844;DHT22;3967;48.702;9.326;2023-11-19T05:23:52;10.70;99.90
7844;DHT22;3967;48.702;9.326;2023-11-19T05:26:22;10.80;99.90
7844;DHT22;3967;48.702;9.326;2023-11-19T05:28:50;10.80;99.90
7844;DHT22;3967;48.702;9.326;2023-11-19T05:31:17;10.80;99.90
7844;DHT22;3967;48.702;9.326;2023-11-19T05:33:44;10.80;99.90
7844;DHT22;3967;48.702;9.326;2023-11-19T05:36:12;10.80;99.90
7844;DHT22;3967;48.702;9.326;2023-11-19T05:38:41;10.80;99.90
7844;DHT22;3967;48.702;9.326;2023-11-19T05:41:08;10.90;99.90
7844;DHT22;3967;48.702;9.326;2023-11-19T05:43:35;10.90;99.90
7844;DHT22;3967;48.702;9.326;2023-11-19T05:46:02;10.90;99.90
7844;DHT22;3967;48.702;9.326;2023-11-19T05:48:29;11.00;99.90
7844;DHT22;3967;48.702;9.326;2023-11-19T05:50:55;10.90;99.90
7844;DHT22;3967;48.702;9.326;2023-11-19T05:53:22;11.00;99.90
7844;DHT22;3967;48.702;9.326;2023-11-19T05:55:50;11.00;99.90
7844;DHT22;3967;48.702;9.326;2023-11-19T05:58:27;10.90;99.90
7844;DHT22;3967;48.702;9.326;2023-11-19T06:00:56;11.00;99.90
7844;DHT22;3967;48.702;9.326;2023-11-19T06:03:23;11.10;99.90
7844;DHT22;3967;48.702;9.326;2023-11-19T06:05:50;11.10;99.90
7844;DHT22;3967;48.702;9.326;2023-11-19T06:08:17;11.10;99.90
7844;DHT22;3967;48.702;9.326;2023-11-19T06:10:44;11.10;99.90
7844;DHT22;3967;48.702;9.326;2023-11-19T06:13:13;11.10;99.90
7844;DHT22;3967;48.702;9.326;2023-11-19T06:15:42;11.10;99.90
7844;DHT22;3967;48.702;9.326;2023-11-19T06:18:09;11.10;99.90
7844;DHT22;3967;48.702;9.326;2023-11-19T06:20:38;11.10;99.90
7844;DHT22;3967;48.702;9.326;2023-11-19T06:23:08;11.10;99.90
7844;DHT22;3967;48.702;9.326;2023-11-19T06:25:35;11.10;99.90
7844;DHT22;3967;48.702;9.326;2023-11-19T06:28:02;11.10;99.90
7844;DHT22;3967;48.702;9.326;2023-11-19T06:30:29;11.10;99.90
7844;DHT22;3967;48.702;9.326;2023-11-19T06:32:59;11.10;99.90
7844;DHT22;3967;48.702;9.326;2023-11-19T06:35:26;11.10;99.90
7844;DHT22;3967;48.702;9.326;2023-11-19T06:37:53;11.10;99.90
7844;DHT22;3967;48.702;9.326;2023-11-19T06:40:20;11.10;99.90
7844;DHT22;3967;48.702;9.326;2023-11-19T06:42:47;11.10;99.90
7844;DHT22;3967;48.702;9.326;2023-11-19T06:45:13;11.20;99.90
7844;DHT22;3967;48.702;9.326;2023-11-19T06:47:40;11.20;99.90
7844;DHT22;3967;48.702;9.326;2023-11-19T06:50:07;11.20;99.90
7844;DHT22;3967;48.702;9.326;2023-11-19T06:52:35;11.20;99.90
7844;DHT22;3967;48.702;9.326;2023-11-19T06:55:04;11.30;99.90
7844;DHT22;3967;48.702;9.326;2023-11-19T06:57:35;11.30;99.90
7844;DHT22;3967;48.702;9.326;2023-11-19T07:00:02;11.30;99.90
7844;DHT22;3967;48.702;9.326;2023-11-19T07:02:30;11.20;99.90
7844;DHT22;3967;48.702;9.326;2023-11-19T07:04:57;11.30;99.90
7844;DHT22;3967;48.702;9.326;2023-11-19T07:07:24;11.30;99.90
7844;DHT22;3967;48.702;9.326;2023-11-19T07:09:50;11.30;99.90
7844;DHT22;3967;48.702;9.326;2023-11-19T07:12:17;11.30;99.90
7844;DHT22;3967;48.702;9.326;2023-11-19T07:14:44;11.30;99.90
7844;DHT22;3967;48.702;9.326;2023-11-19T07:17:11;11.30;99.90
7844;DHT22;3967;48.702;9.326;2023-11-19T07:19:37;11.40;99.90
7844;DHT22;3967;48.702;9.326;2023-11-19T07:22:05;11.50;99.90
7844;DHT22;3967;48.702;9.326;2023-11-19T07:24:33;11.40;99.90
7844;DHT22;3967;48.702;9.326;2023-11-19T07:27:00;11.50;99.90
7844;DHT22;3967;48.702;9.326;2023-11-19T07:29:28;11.50;99.90
7844;DHT22;3967;48.702;9.326;2023-11-19T07:31:56;11.50;99.90
7844;DHT22;3967;48.702;9.326;2023-11-19T07:34:24;11.50;99.90
7844;DHT22;3967;48.702;9.326;2023-11-19T07:36:52;11.60;99.90
7844;DHT22;3967;48.702;9.326;2023-11-19T07:39:19;11.60;99.90
7844;DHT22;3967;48.702;9.326;2023-11-19T07:41:47;11.60;99.90
7844;DHT22;3967;48.702;9.326;2023-11-19T07:44:14;11.60;99.90
7844;DHT22;3967;48.702;9.326;2023-11-19T07:46:41;11.60;99.90
7844;DHT22;3967;48.702;9.326;2023-11-19T07:49:09;11.60;99.90
7844;DHT22;3967;48.702;9.326;2023-11-19T07:51:36;11.60;99.90
7844;DHT22;3967;48.702;9.326;2023-11-19T07:54:04;11.50;99.90
7844;DHT22;3967;48.702;9.326;2023-11-19T07:56:32;11.50;99.90
7844;DHT22;3967;48.702;9.326;2023-11-19T07:59:04;11.50;99.90
7844;DHT22;3967;48.702;9.326;2023-11-19T08:01:31;11.50;99.90
7844;DHT22;3967;48.702;9.326;2023-11-19T08:03:57;11.60;99.90
7844;DHT22;3967;48.702;9.326;2023-11-19T08:06:26;11.60;99.90
7844;DHT22;3967;48.702;9.326;2023-11-19T08:08:53;11.60;99.90
7844;DHT22;3967;48.702;9.326;2023-11-19T08:11:19;11.60;99.90
7844;DHT22;3967;48.702;9.326;2023-11-19T08:13:47;11.60;99.90
7844;DHT22;3967;48.702;9.326;2023-11-19T08:16:14;11.70;99.90
7844;DHT22;3967;48.702;9.326;2023-11-19T08:18:43;11.80;99.90
7844;DHT22;3967;48.702;9.326;2023-11-19T08:21:10;11.80;99.90
7844;DHT22;3967;48.702;9.326;2023-11-19T08:23:37;11.90;99.90
7844;DHT22;3967;48.702;9.326;2023-11-19T08:26:05;11.90;99.90
7844;DHT22;3967;48.702;9.326;2023-11-19T08:28:32;11.90;99.90
7844;DHT22;3967;48.702;9.326;2023-11-19T08:31:04;12.00;99.90
7844;DHT22;3967;48.702;9.326;2023-11-19T08:33:32;12.00;99.90
7844;DHT22;3967;48.702;9.326;2023-11-19T08:35:59;12.00;99.90
7844;DHT22;3967;48.702;9.326;2023-11-19T08:38:26;12.00;99.90
7844;DHT22;3967;48.702;9.326;2023-11-19T08:40:56;12.10;99.90
7844;DHT22;3967;48.702;9.326;2023-11-19T08:43:26;12.10;99.90
7844;DHT22;3967;48.702;9.326;2023-11-19T08:45:53;12.30;99.90
7844;DHT22;3967;48.702;9.326;2023-11-19T08:48:20;12.60;99.90
7844;DHT22;3967;48.702;9.326;2023-11-19T08:50:47;12.80;99.90
7844;DHT22;3967;48.702;9.326;2023-11-19T08:53:15;12.70;99.90
7844;DHT22;3967;48.702;9.326;2023-11-19T08:55:42;12.80;99.90
7844;DHT22;3967;48.702;9.326;2023-11-19T08:58:09;12.80;99.90
7844;DHT22;3967;48.702;9.326;2023-11-19T09:00:35;12.70;99.90
7844;DHT22;3967;48.702;9.326;2023-11-19T09:03:02;12.70;99.90
7844;DHT22;3967;48.702;9.326;2023-11-19T09:05:30;12.70;99.90
7844;DHT22;3967;48.702;9.326;2023-11-19T09:07:57;12.70;99.90
7844;DHT22;3967;48.702;9.326;2023-11-19T09:10:23;12.70;99.90
7844;DHT22;3967;48.702;9.326;2023-11-19T09:12:50;12.80;99.90
7844;DHT22;3967;48.702;9.326;2023-11-19T09:15:17;12.80;99.90
7844;DHT22;3967;48.702;9.326;2023-11-19T09:17:44;12.90;99.90
7844;DHT22;3967;48.702;9.326;2023-11-19T09:20:12;13.00;99.90
7844;DHT22;3967;48.702;9.326;2023-11-19T09:22:42;13.00;99.90
7844;DHT22;3967;48.702;9.326;2023-11-19T09:25:09;13.00;99.90
7844;DHT22;3967;48.702;9.326;2023-11-19T09:27:36;13.00;99.90
7844;DHT22;3967;48.702;9.326;2023-11-19T09:30:03;13.10;99.90
7844;DHT22;3967;48.702;9.326;2023-11-19T09:32:30;13.20;99.90
7844;DHT22;3967;48.702;9.326;2023-11-19T09:34:57;13.30;99.90
7844;DHT22;3967;48.702;9.326;2023-11-19T09:37:24;13.20;99.90
7844;DHT22;3967;48.702;9.326;2023-11-19T09:39:51;13.30;99.90
7844;DHT22;3967;48.702;9.326;2023-11-19T09:42:19;13.30;99.90
7844;DHT22;3967;48.702;9.326;2023-11-19T09:44:47;13.40;99.90
7844;DHT22;3967;48.702;9.326;2023-11-19T09:47:14;13.40;99.90
7844;DHT22;3967;48.702;9.326;2023-11-19T09:49:44;13.50;99.90
7844;DHT22;3967;48.702;9.326;2023-11-19T09:52:11;13.70;99.90
7844;DHT22;3967;48.702;9.326;2023-11-19T09:54:37;13.70;99.90
7844;DHT22;3967;48.702;9.326;2023-11-19T09:57:05;13.70;99.90
7844;DHT22;3967;48.702;9.326;2023-11-19T09:59:33;13.60;99.90
7844;DHT22;3967;48.702;9.326;2023-11-19T10:02:00;13.70;99.90
7844;DHT22;3967;48.702;9.326;2023-11-19T10:04:30;13.70;99.90
7844;DHT22;3967;48.702;9.326;2023-11-19T10:06:58;13.70;99.90
7844;DHT22;3967;48.702;9.326;2023-11-19T10:09:25;13.80;99.90
7844;DHT22;3967;48.702;9.326;2023-11-19T10:11:51;13.80;99.90
7844;DHT22;3967;48.702;9.326;2023-11-19T10:14:22;13.90;99.90
7844;DHT22;3967;48.702;9.326;2023-11-19T10:16:49;14.00;99.90
7844;DHT22;3967;48.702;9.326;2023-11-19T10:19:19;14.00;99.90
7844;DHT22;3967;48.702;9.326;2023-11-19T10:21:47;14.00;99.90
7844;DHT22;3967;48.702;9.326;2023-11-19T10:24:14;14.10;99.90
7844;DHT22;3967;48.702;9.326;2023-11-19T10:26:57;14.10;99.90
7844;DHT22;3967;48.702;9.326;2023-11-19T10:29:24;14.20;99.90
7844;DHT22;3967;48.702;9.326;2023-11-19T10:32:00;14.10;99.90
7844;DHT22;3967;48.702;9.326;2023-11-19T10:34:46;14.20;99.90
7844;DHT22;3967;48.702;9.326;2023-11-19T10:37:29;14.20;99.90
7844;DHT22;3967;48.702;9.326;2023-11-19T10:40:01;14.30;99.90
7844;DHT22;3967;48.702;9.326;2023-11-19T10:42:31;14.30;99.90
7844;DHT22;3967;48.702;9.326;2023-11-19T10:44:58;14.10;99.90
7844;DHT22;3967;48.702;9.326;2023-11-19T10:47:25;14.20;99.90
7844;DHT22;3967;48.702;9.326;2023-11-19T10:49:55;14.40;99.90
7844;DHT22;3967;48.702;9.326;2023-11-19T10:52:23;14.50;99.90
7844;DHT22;3967;48.702;9.326;2023-11-19T10:54:51;14.40;99.90
7844;DHT22;3967;48.702;9.326;2023-11-19T10:57:21;14.50;99.90
7844;DHT22;3967;48.702;9.326;2023-11-19T10:59:57;14.50;99.90
7844;DHT22;3967;48.702;9.326;2023-11-19T11:02:28;14.60;99.90
7844;DHT22;3967;48.702;9.326;2023-11-19T11:04:57;14.50;99.90
7844;DHT22;3967;48.702;9.326;2023-11-19T11:07:25;14.60;99.90
7844;DHT22;3967;48.702;9.326;2023-11-19T11:10:06;14.60;99.90
7844;DHT22;3967;48.702;9.326;2023-11-19T11:12:38;14.70;99.90
7844;DHT22;3967;48.702;9.326;2023-11-19T11:15:11;14.70;99.90
7844;DHT22;3967;48.702;9.326;2023-11-19T11:17:43;14.70;99.90
7844;DHT22;3967;48.702;9.326;2023-11-19T11:20:11;14.80;99.90
7844;DHT22;3967;48.702;9.326;2023-11-19T11:36:31;14.90;99.90
7844;DHT22;3967;48.702;9.326;2023-11-19T11:39:01;14.90;99.90
7844;DHT22;3967;48.702;9.326;2023-11-19T11:41:34;14.90;99.90
7844;DHT22;3967;48.702;9.326;2023-11-19T11:44:01;14.80;99.90
7844;DHT22;3967;48.702;9.326;2023-11-19T11:49:04;14.80;99.90
7844;DHT22;3967;48.702;9.326;2023-11-19T11:54:30;14.90;99.90
7844;DHT22;3967;48.702;9.326;2023-11-19T12:02:10;15.00;99.90
7844;DHT22;3967;48.702;9.326;2023-11-19T12:04:39;15.20;99.90
7844;DHT22;3967;48.702;9.326;2023-11-19T12:07:14;15.30;99.90
7844;DHT22;3967;48.702;9.326;2023-11-19T12:09:41;15.30;99.90
7844;DHT22;3967;48.702;9.326;2023-11-19T12:15:03;15.50;99.90
7844;DHT22;3967;48.702;9.326;2023-11-19T12:20:01;15.50;99.90
7844;DHT22;3967;48.702;9.326;2023-11-19T12:22:28;15.40;99.90
7844;DHT22;3967;48.702;9.326;2023-11-19T12:24:55;15.30;98.80
7844;DHT22;3967;48.702;9.326;2023-11-19T12:27:22;15.30;99.80
7844;DHT22;3967;48.702;9.326;2023-11-19T12:29:50;15.40;99.90
7844;DHT22;3967;48.702;9.326;2023-11-19T12:32:17;15.40;99.90
7844;DHT22;3967;48.702;9.326;2023-11-19T12:34:45;15.40;98.40
7844;DHT22;3967;48.702;9.326;2023-11-19T12:37:12;15.30;97.50
7844;DHT22;3967;48.702;9.326;2023-11-19T12:39:39;15.30;98.10
7844;DHT22;3967;48.702;9.326;2023-11-19T12:42:07;15.30;97.20
7844;DHT22;3967;48.702;9.326;2023-11-19T12:44:33;15.30;97.50
7844;DHT22;3967;48.702;9.326;2023-11-19T12:47:02;15.20;97.10
7844;DHT22;3967;48.702;9.326;2023-11-19T12:49:30;15.30;97.80
7844;DHT22;3967;48.702;9.326;2023-11-19T12:51:56;15.30;97.80
7844;DHT22;3967;48.702;9.326;2023-11-19T12:54:34;15.30;97.30
7844;DHT22;3967;48.702;9.326;2023-11-19T12:57:04;15.40;97.80
7844;DHT22;3967;48.702;9.326;2023-11-19T12:59:32;15.40;97.70
7844;DHT22;3967;48.702;9.326;2023-11-19T13:01:59;15.50;97.70
7844;DHT22;3967;48.702;9.326;2023-11-19T13:04:34;15.50;97.30
7844;DHT22;3967;48.702;9.326;2023-11-19T13:07:01;15.60;96.90
7844;DHT22;3967;48.702;9.326;2023-11-19T13:09:32;15.60;97.50
7844;DHT22;3967;48.702;9.326;2023-11-19T13:11:59;15.50;96.40
7844;DHT22;3967;48.702;9.326;2023-11-19T13:14:37;15.50;95.90
7844;DHT22;3967;48.702;9.326;2023-11-19T13:17:08;15.60;96.10
7844;DHT22;3967;48.702;9.326;2023-11-19T13:19:35;15.50;96.10
7844;DHT22;3967;48.702;9.326;2023-11-19T13:22:02;15.40;96.10
7844;DHT22;3967;48.702;9.326;2023-11-19T13:24:29;15.40;95.70
7844;DHT22;3967;48.702;9.326;2023-11-19T13:26:56;15.40;95.50
7844;DHT22;3967;48.702;9.326;2023-11-19T13:29:22;15.40;95.10
7844;DHT22;3967;48.702;9.326;2023-11-19T13:31:49;15.50;95.30
7844;DHT22;3967;48.702;9.326;2023-11-19T13:34:16;15.60;94.90
7844;DHT22;3967;48.702;9.326;2023-11-19T13:36:43;15.70;95.20
7844;DHT22;3967;48.702;9.326;2023-11-19T13:39:10;15.70;95.00
7844;DHT22;3967;48.702;9.326;2023-11-19T13:41:38;15.70;94.50
7844;DHT22;3967;48.702;9.326;2023-11-19T13:44:05;15.70;94.40
7844;DHT22;3967;48.702;9.326;2023-11-19T13:46:32;15.70;93.40
7844;DHT22;3967;48.702;9.326;2023-11-19T13:48:58;15.50;93.90
7844;DHT22;3967;48.702;9.326;2023-11-19T13:51:25;15.30;93.90
7844;DHT22;3967;48.702;9.326;2023-11-19T13:53:52;15.30;93.50
7844;DHT22;3967;48.702;9.326;2023-11-19T13:56:19;15.20;93.70
7844;DHT22;3967;48.702;9.326;2023-11-19T13:58:46;15.10;93.30
7844;DHT22;3967;48.702;9.326;2023-11-19T14:01:12;15.10;93.70
7844;DHT22;3967;48.702;9.326;2023-11-19T14:03:40;15.00;93.70
7844;DHT22;3967;48.702;9.326;2023-11-19T14:06:08;15.00;93.20
7844;DHT22;3967;48.702;9.326;2023-11-19T14:08:35;14.90;93.10
7844;DHT22;3967;48.702;9.326;2023-11-19T14:11:02;15.00;93.00
7844;DHT22;3967;48.702;9.326;2023-11-19T14:13:29;14.90;92.90
7844;DHT22;3967;48.702;9.326;2023-11-19T14:15:56;15.00;93.00
7844;DHT22;3967;48.702;9.326;2023-11-19T14:18:23;15.00;92.90
7844;DHT22;3967;48.702;9.326;2023-11-19T14:20:50;15.00;93.20
7844;DHT22;3967;48.702;9.326;2023-11-19T14:23:17;15.10;93.20
7844;DHT22;3967;48.702;9.326;2023-11-19T14:25:44;15.20;93.30
7844;DHT22;3967;48.702;9.326;2023-11-19T14:28:11;15.20;93.10
7844;DHT22;3967;48.702;9.326;2023-11-19T14:30:39;15.20;93.10
7844;DHT22;3967;48.702;9.326;2023-11-19T14:33:08;15.20;93.10
7844;DHT22;3967;48.702;9.326;2023-11-19T14:35:35;15.20;93.10
7844;DHT22;3967;48.702;9.326;2023-11-19T14:38:05;15.30;93.10
7844;DHT22;3967;48.702;9.326;2023-11-19T14:40:36;15.20;93.30
7844;DHT22;3967;48.702;9.326;2023-11-19T14:43:06;15.10;93.50
7844;DHT22;3967;48.702;9.326;2023-11-19T14:45:33;15.00;93.40
7844;DHT22;3967;48.702;9.326;2023-11-19T14:48:10;15.00;93.50
7844;DHT22;3967;48.702;9.326;2023-11-19T14:50:37;14.90;93.50
7844;DHT22;3967;48.702;9.326;2023-11-19T14:53:04;14.90;93.70
7844;DHT22;3967;48.702;9.326;2023-11-19T14:55:31;14.80;93.80
7844;DHT22;3967;48.702;9.326;2023-11-19T14:57:58;14.70;93.30
7844;DHT22;3967;48.702;9.326;2023-11-19T15:00:35;14.70;93.20
7844;DHT22;3967;48.702;9.326;2023-11-19T15:03:05;14.70;93.50
7844;DHT22;3967;48.702;9.326;2023-11-19T15:05:33;14.60;93.60
7844;DHT22;3967;48.702;9.326;2023-11-19T15:08:01;14.40;93.50
7844;DHT22;3967;48.702;9.326;2023-11-19T15:10:29;14.30;93.20
7844;DHT22;3967;48.702;9.326;2023-11-19T15:12:56;14.20;93.20
7844;DHT22;3967;48.702;9.326;2023-11-19T15:15:24;14.20;93.30
7844;DHT22;3967;48.702;9.326;2023-11-19T15:17:54;14.20;93.30
7844;DHT22;3967;48.702;9.326;2023-11-19T15:20:20;14.10;93.20
7844;DHT22;3967;48.702;9.326;2023-11-19T15:22:47;14.10;93.10
7844;DHT22;3967;48.702;9.326;2023-11-19T15:25:14;14.10;93.30
7844;DHT22;3967;48.702;9.326;2023-11-19T15:27:41;14.10;93.10
7844;DHT22;3967;48.702;9.326;2023-11-19T15:30:08;14.00;93.40
7844;DHT22;3967;48.702;9.326;2023-11-19T15:32:37;14.00;93.20
7844;DHT22;3967;48.702;9.326;2023-11-19T15:35:07;13.90;93.10
7844;DHT22;3967;48.702;9.326;2023-11-19T15:37:35;13.80;92.80
7844;DHT22;3967;48.702;9.326;2023-11-19T15:40:02;13.80;92.70
7844;DHT22;3967;48.702;9.326;2023-11-19T15:42:35;13.80;92.60
7844;DHT22;3967;48.702;9.326;2023-11-19T15:45:02;13.80;92.50
7844;DHT22;3967;48.702;9.326;2023-11-19T15:47:33;13.80;92.80
7844;DHT22;3967;48.702;9.326;2023-11-19T15:50:02;13.80;92.60
7844;DHT22;3967;48.702;9.326;2023-11-19T15:52:32;13.70;92.70
7844;DHT22;3967;48.702;9.326;2023-11-19T15:54:59;13.80;92.70
7844;DHT22;3967;48.702;9.326;2023-11-19T15:57:26;13.80;92.70
7844;DHT22;3967;48.702;9.326;2023-11-19T15:59:53;13.60;92.60
7844;DHT22;3967;48.702;9.326;2023-11-19T16:02:20;13.70;92.80
7844;DHT22;3967;48.702;9.326;2023-11-19T16:04:47;13.70;92.90
7844;DHT22;3967;48.702;9.326;2023-11-19T16:07:14;13.70;92.80
7844;DHT22;3967;48.702;9.326;2023-11-19T16:09:41;13.70;92.80
7844;DHT22;3967;48.702;9.326;2023-11-19T16:12:08;13.70;92.80
7844;DHT22;3967;48.702;9.326;2023-11-19T16:14:35;13.70;93.40
7844;DHT22;3967;48.702;9.326;2023-11-19T16:17:02;13.70;93.30
7844;DHT22;3967;48.702;9.326;2023-11-19T16:19:29;13.60;93.10
7844;DHT22;3967;48.702;9.326;2023-11-19T16:21:57;13.60;93.50
7844;DHT22;3967;48.702;9.326;2023-11-19T16:24:23;13.50;93.40
7844;DHT22;3967;48.702;9.326;2023-11-19T16:26:52;13.50;93.50
7844;DHT22;3967;48.702;9.326;2023-11-19T16:29:18;13.40;93.80
7844;DHT22;3967;48.702;9.326;2023-11-19T16:31:46;13.50;93.60
7844;DHT22;3967;48.702;9.326;2023-11-19T16:34:14;13.40;93.90
7844;DHT22;3967;48.702;9.326;2023-11-19T16:36:41;13.30;94.10
7844;DHT22;3967;48.702;9.326;2023-11-19T16:39:11;13.20;94.00
7844;DHT22;3967;48.702;9.326;2023-11-19T16:41:42;13.50;96.20